Time;durP1;ratioP1;P1;durP2;ratioP2;P2;SDS_P1;SDS_P2;PMS_P1;PMS_P2;Temp;Humidity;BMP_temperature;BMP_pressure;BME280_temperature;BME280_humidity;BME280_pressure;Samples;Min_cycle;Max_cycle;Signal;HPM_P1;HPM_P2
2022/03/28 00:01:24;;;;;;;3.40;1.70;;;;;;;-0.83;48.92;96802.08;1795375;80;21051;-74
2022/03/28 00:03:51;;;;;;;4.50;1.60;;;;;;;-1.01;49.41;96802.11;1795498;80;20971;-74
2022/03/28 00:06:17;;;;;;;3.60;1.50;;;;;;;-0.94;49.35;96798.98;1795414;80;21058;-74
2022/03/28 00:08:44;;;;;;;2.03;1.17;;;;;;;-0.98;48.50;96802.27;1795433;80;21516;-74
2022/03/28 00:11:10;;;;;;;3.53;1.67;;;;;;;-0.97;48.77;96800.15;1795538;80;21017;-74
2022/03/28 00:13:37;;;;;;;3.50;2.23;;;;;;;-0.91;49.91;96799.15;1795295;80;21504;-74
2022/03/28 00:16:04;;;;;;;2.43;1.23;;;;;;;-0.89;49.83;96792.72;1795570;80;21021;-74
2022/03/28 00:18:30;;;;;;;1.67;1.27;;;;;;;-0.87;48.79;96794.56;1789845;80;21022;-74
2022/03/28 00:20:57;;;;;;;3.27;1.33;;;;;;;-0.82;48.59;96785.70;1787090;80;20998;-74
2022/03/28 00:23:24;;;;;;;4.27;2.40;;;;;;;-0.76;48.20;96785.08;1787100;80;21007;-74
2022/03/28 00:25:51;;;;;;;6.33;2.83;;;;;;;-0.83;49.10;96789.50;1787161;80;21047;-74
2022/03/28 00:28:19;;;;;;;2.03;1.40;;;;;;;-1.02;50.20;96787.81;1787152;80;21022;-74
2022/03/28 00:30:45;;;;;;;2.77;1.50;;;;;;;-0.99;49.35;96781.47;1786925;80;21461;-74
2022/03/28 00:33:12;;;;;;;9.23;1.63;;;;;;;-0.96;48.66;96777.33;1787159;80;21042;-74
2022/03/28 00:35:39;;;;;;;4.00;1.33;;;;;;;-0.88;48.69;96777.67;1787087;80;21473;-74
2022/03/28 00:38:06;;;;;;;1.70;1.17;;;;;;;-0.89;49.18;96771.58;1787078;80;21015;-74
2022/03/28 00:40:34;;;;;;;1.33;1.03;;;;;;;-0.93;49.08;96780.05;1787178;80;20967;-74
2022/03/28 00:43:03;;;;;;;31.17;3.30;;;;;;;-0.94;49.21;96779.97;1787036;80;21500;-74
2022/03/28 00:45:31;;;;;;;3.37;1.50;;;;;;;-1.06;48.57;96780.71;1786874;80;21474;-74
2022/03/28 00:47:59;;;;;;;3.27;1.63;;;;;;;-1.01;48.72;96777.92;1787042;80;21018;-74
2022/03/28 00:50:28;;;;;;;1.67;0.90;;;;;;;-0.99;48.88;96775.88;1787038;80;21014;-74
2022/03/28 00:52:55;;;;;;;2.10;1.10;;;;;;;-0.95;48.68;96767.84;1787142;80;21042;-74
2022/03/28 00:55:21;;;;;;;2.03;1.30;;;;;;;-1.03;48.98;96766.21;1787072;80;21448;-74
2022/03/28 00:57:48;;;;;;;4.03;0.87;;;;;;;-1.01;49.48;96758.08;1786715;80;21007;-74
2022/03/28 01:00:16;;;;;;;4.10;1.20;;;;;;;-1.14;49.67;96759.23;1787064;80;21022;-74
2022/03/28 01:02:43;;;;;;;4.13;1.37;;;;;;;-1.18;49.29;96765.52;1787027;80;21484;-73
2022/03/28 01:05:10;;;;;;;1.83;1.30;;;;;;;-1.09;49.14;96763.33;1786970;80;20995;-74
2022/03/28 01:07:42;;;;;;;1.67;1.30;;;;;;;-0.98;48.75;96766.01;1754409;80;21014;-74
2022/03/28 01:10:11;;;;;;;3.80;2.57;;;;;;;-0.93;49.96;96759.73;1787528;80;21452;-74
2022/03/28 01:12:43;;;;;;;2.20;1.30;;;;;;;-0.91;49.60;96758.08;1786910;80;21022;-74
2022/03/28 01:15:13;;;;;;;3.20;1.13;;;;;;;-0.87;49.53;96769.06;1786903;80;21034;-74
2022/03/28 01:20:28;;;;;;;2.10;1.17;;;;;;;-0.88;49.12;96768.59;1795397;80;21001;-74
2022/03/28 01:22:55;;;;;;;2.27;1.30;;;;;;;-0.95;50.57;96771.73;1795373;80;21001;-74
2022/03/28 01:25:25;;;;;;;2.77;0.90;;;;;;;-0.91;49.67;96769.35;1795419;80;21030;-74
2022/03/28 01:27:54;;;;;;;2.40;0.93;;;;;;;-0.99;49.73;96777.58;1795380;80;20998;-74
2022/03/28 01:30:21;;;;;;;1.77;0.87;;;;;;;-1.06;50.06;96780.30;1795217;80;21488;-74
2022/03/28 01:32:50;;;;;;;4.43;1.20;;;;;;;-1.11;49.92;96776.61;1764250;80;21038;-74
2022/03/28 01:35:32;;;;;;;3.17;1.10;;;;;;;-1.19;49.88;96777.97;1795360;80;21054;-74
2022/03/28 01:38:03;;;;;;;1.97;0.90;;;;;;;-1.17;52.12;96778.94;1795390;80;21038;-74
2022/03/28 01:40:31;;;;;;;0.87;0.70;;;;;;;-1.24;52.67;96780.77;1795329;80;20975;-74
2022/03/28 01:42:58;;;;;;;2.33;0.70;;;;;;;-1.24;50.95;96778.17;1795753;80;21069;-74
2022/03/28 01:45:25;;;;;;;3.53;1.00;;;;;;;-1.19;50.84;96781.86;1795305;80;21453;-74
2022/03/28 01:47:52;;;;;;;2.73;0.77;;;;;;;-1.15;50.30;96778.61;1795496;80;21010;-74
2022/03/28 01:50:19;;;;;;;8.83;1.73;;;;;;;-1.15;49.70;96778.19;1795427;80;21535;-74
2022/03/28 01:52:46;;;;;;;2.53;1.10;;;;;;;-1.24;50.39;96773.88;1795386;80;20986;-74
2022/03/28 01:55:13;;;;;;;1.80;0.80;;;;;;;-1.32;50.44;96776.11;1795223;80;21005;-74
2022/03/28 01:57:42;;;;;;;1.10;0.70;;;;;;;-1.34;50.79;96784.22;1795395;80;20990;-74
2022/03/28 02:00:13;;;;;;;3.27;0.90;;;;;;;-1.34;52.24;96781.62;1795265;80;21012;-74
2022/03/28 02:02:40;;;;;;;23.80;2.17;;;;;;;-1.31;50.77;96776.61;1795447;80;20997;-74
2022/03/28 02:05:12;;;;;;;6.10;1.10;;;;;;;-1.34;51.81;96775.56;1795433;80;21520;-74
2022/03/28 02:07:40;;;;;;;5.60;1.60;;;;;;;-1.48;53.87;96772.36;1795338;80;21006;-74
2022/03/28 02:10:09;;;;;;;11.13;2.83;;;;;;;-1.53;53.00;96770.84;1795349;80;21033;-74
2022/03/28 02:12:36;;;;;;;14.00;1.77;;;;;;;-1.58;53.25;96761.98;1795474;80;20983;-74
2022/03/28 02:15:06;;;;;;;2.63;0.90;;;;;;;-1.53;52.81;96765.66;1795412;80;21018;-74
2022/03/28 02:17:38;;;;;;;2.20;1.00;;;;;;;-1.49;52.40;96764.09;1795212;80;20994;-74
2022/03/28 02:20:08;;;;;;;1.70;0.73;;;;;;;-1.43;52.62;96754.04;1787283;80;21069;-74
2022/03/28 02:22:36;;;;;;;3.60;1.10;;;;;;;-1.38;52.29;96757.73;1787272;80;20987;-74
2022/03/28 02:25:05;;;;;;;13.37;1.70;;;;;;;-1.38;51.13;96754.25;1787136;80;21078;-74
2022/03/28 02:27:32;;;;;;;5.53;1.20;;;;;;;-1.43;51.57;96751.45;1787171;80;21460;-74
2022/03/28 02:29:59;;;;;;;4.97;1.10;;;;;;;-1.48;52.75;96758.12;1787009;80;20994;-74
2022/03/28 02:32:25;;;;;;;7.47;2.00;;;;;;;-1.51;53.91;96757.98;1787233;80;21049;-74
2022/03/28 02:34:52;;;;;;;3.20;1.30;;;;;;;-1.47;53.98;96746.94;1787188;80;21492;-74
2022/03/28 02:37:19;;;;;;;8.03;1.17;;;;;;;-1.43;53.41;96749.28;1787049;80;21054;-74
2022/03/28 02:39:45;;;;;;;1.03;0.70;;;;;;;-1.42;53.43;96745.86;1787391;80;20959;-74
2022/03/28 02:42:12;;;;;;;4.50;0.97;;;;;;;-1.42;52.99;96749.74;1787252;80;21497;-74
2022/03/28 02:44:39;;;;;;;2.73;0.87;;;;;;;-1.53;53.72;96746.25;1786971;80;21042;-74
2022/03/28 02:47:06;;;;;;;1.80;0.80;;;;;;;-1.49;52.55;96747.27;1787237;80;21011;-74
2022/03/28 02:49:33;;;;;;;2.20;0.93;;;;;;;-1.45;52.55;96748.31;1787282;80;21034;-74
2022/03/28 02:51:59;;;;;;;1.57;0.87;;;;;;;-1.52;53.54;96744.55;1787114;80;21007;-74
2022/03/28 02:54:26;;;;;;;1.70;0.90;;;;;;;-1.58;52.93;96745.16;1787254;80;20963;-74
2022/03/28 02:56:53;;;;;;;1.80;0.80;;;;;;;-1.59;53.26;96750.25;1787056;80;21010;-74
2022/03/28 02:59:19;;;;;;;1.00;0.70;;;;;;;-1.63;53.53;96748.35;1787251;80;21460;-74
2022/03/28 03:01:48;;;;;;;1.53;0.80;;;;;;;-1.71;54.20;96750.58;1787115;80;20995;-74
2022/03/28 03:04:14;;;;;;;2.43;0.80;;;;;;;-1.79;55.77;96751.52;1787067;80;20990;-74
2022/03/28 03:06:41;;;;;;;2.00;0.90;;;;;;;-1.73;56.07;96753.91;1787125;80;20991;-74
2022/03/28 03:09:07;;;;;;;2.03;0.90;;;;;;;-1.68;54.00;96757.60;1787208;80;21019;-74
2022/03/28 03:11:34;;;;;;;1.90;0.90;;;;;;;-1.65;54.13;96753.44;1787201;80;20999;-74
2022/03/28 03:14:00;;;;;;;2.27;0.90;;;;;;;-1.67;54.38;96751.59;1787240;80;20987;-74
2022/03/28 03:16:27;;;;;;;1.10;0.70;;;;;;;-1.60;54.78;96753.66;1786977;80;20979;-74
2022/03/28 03:18:54;;;;;;;1.43;1.00;;;;;;;-1.54;54.99;96753.94;1786949;80;21492;-73
2022/03/28 03:21:21;;;;;;;3.70;0.80;;;;;;;-1.49;54.16;96754.16;1787197;80;20995;-74
2022/03/28 03:23:48;;;;;;;0.90;0.60;;;;;;;-1.50;53.72;96753.69;1787204;80;21028;-74
2022/03/28 03:26:15;;;;;;;2.33;1.33;;;;;;;-1.66;54.45;96753.36;1786996;80;21007;-74
2022/03/28 03:28:41;;;;;;;1.77;0.90;;;;;;;-1.73;55.92;96757.80;1787201;80;21086;-74
2022/03/28 03:31:08;;;;;;;3.13;0.93;;;;;;;-1.72;55.34;96746.20;1787021;80;21011;-74
2022/03/28 03:33:35;;;;;;;1.37;0.60;;;;;;;-1.64;54.20;96746.56;1787136;80;21043;-74
2022/03/28 03:36:02;;;;;;;1.80;0.90;;;;;;;-1.73;54.77;96743.15;1787190;80;21035;-74
2022/03/28 03:38:28;;;;;;;1.87;0.80;;;;;;;-1.72;54.84;96750.50;1787165;80;21031;-74
2022/03/28 03:40:55;;;;;;;1.37;0.90;;;;;;;-1.71;54.94;96750.96;1787062;80;21003;-74
2022/03/28 03:43:22;;;;;;;3.47;0.80;;;;;;;-1.64;54.28;96749.15;1787188;80;21471;-72
2022/03/28 03:45:49;;;;;;;1.53;0.90;;;;;;;-1.59;54.10;96748.95;1786879;80;21061;-73
2022/03/28 03:48:15;;;;;;;2.17;0.90;;;;;;;-1.71;54.52;96746.70;1787185;80;21034;-73
2022/03/28 03:50:42;;;;;;;1.63;1.00;;;;;;;-1.83;54.45;96750.88;1787076;80;20999;-73
2022/03/28 03:53:09;;;;;;;1.83;1.10;;;;;;;-1.82;55.53;96752.64;1787111;80;21010;-73
2022/03/28 03:55:36;;;;;;;1.30;0.73;;;;;;;-1.72;54.87;96753.08;1787086;80;21007;-73
2022/03/28 03:58:03;;;;;;;3.77;1.47;;;;;;;-1.74;55.09;96747.83;1787069;80;21042;-73
2022/03/28 04:00:30;;;;;;;4.20;1.40;;;;;;;-1.81;56.01;96743.20;1786914;80;21477;-74
2022/03/28 04:02:56;;;;;;;2.40;1.20;;;;;;;-1.80;55.50;96744.55;1787084;80;21011;-74
2022/03/28 04:05:23;;;;;;;2.40;1.30;;;;;;;-1.76;55.39;96740.42;1787037;80;21022;-74
2022/03/28 04:07:50;;;;;;;4.27;1.10;;;;;;;-1.69;55.62;96742.88;1787146;80;21511;-73
2022/03/28 04:10:17;;;;;;;2.90;1.80;;;;;;;-1.64;54.86;96742.67;1786814;80;21082;-73
2022/03/28 04:12:43;;;;;;;1.67;1.10;;;;;;;-1.56;54.84;96740.94;1787168;80;21038;-74
2022/03/28 04:15:10;;;;;;;4.50;1.57;;;;;;;-1.47;55.23;96736.58;1786892;80;21014;-73
2022/03/28 04:17:42;;;;;;;2.40;1.07;;;;;;;-1.41;54.56;96733.38;1787066;80;21011;-73
2022/03/28 04:20:12;;;;;;;6.97;3.73;;;;;;;-1.49;55.63;96730.44;1794350;80;20994;-73
2022/03/28 04:22:42;;;;;;;5.67;2.40;;;;;;;-1.49;55.80;96724.38;1795571;80;21437;-73
2022/03/28 04:25:10;;;;;;;3.27;1.10;;;;;;;-1.50;56.02;96725.22;1795548;80;21002;-73
2022/03/28 04:27:37;;;;;;;4.50;1.43;;;;;;;-1.67;56.49;96722.72;1795494;80;21497;-73
2022/03/28 04:30:08;;;;;;;4.17;1.43;;;;;;;-1.65;56.59;96724.09;1795261;80;21049;-73
2022/03/28 04:32:35;;;;;;;3.70;1.30;;;;;;;-1.57;56.14;96724.91;1795418;80;21038;-73
2022/03/28 04:35:04;;;;;;;2.27;1.20;;;;;;;-1.48;55.50;96721.00;1795303;80;20970;-73
2022/03/28 04:37:36;;;;;;;6.40;1.50;;;;;;;-1.48;56.08;96723.59;1764428;80;21460;-73
2022/03/28 04:40:06;;;;;;;3.50;2.30;;;;;;;-1.46;56.78;96724.14;1795410;80;21062;-73
2022/03/28 04:42:33;;;;;;;6.33;2.93;;;;;;;-1.39;57.75;96727.45;1795436;80;21006;-73
2022/03/28 04:45:00;;;;;;;12.20;5.07;;;;;;;-1.47;57.05;96724.94;1795292;80;21515;-73
2022/03/28 04:47:26;;;;;;;4.13;1.87;;;;;;;-1.45;56.67;96720.72;1795374;80;21015;-73
2022/03/28 04:49:53;;;;;;;2.23;1.40;;;;;;;-1.45;56.72;96720.72;1795353;80;21070;-73
2022/03/28 04:52:19;;;;;;;1.93;1.30;;;;;;;-1.40;57.14;96725.70;1795367;80;21018;-73
2022/03/28 04:54:46;;;;;;;4.80;1.20;;;;;;;-1.32;58.24;96719.16;1795521;80;20991;-73
2022/03/28 04:57:13;;;;;;;5.33;1.47;;;;;;;-1.20;56.59;96716.66;1795236;80;21042;-74
2022/03/28 04:59:39;;;;;;;9.00;5.40;;;;;;;-1.08;56.31;96717.20;1795520;80;20994;-74
2022/03/28 05:02:06;;;;;;;10.67;5.83;;;;;;;-1.04;57.61;96720.39;1795201;80;21076;-71
2022/03/28 05:04:33;;;;;;;7.40;2.83;;;;;;;-0.97;57.24;96718.55;1795417;80;21010;-71
2022/03/28 05:06:59;;;;;;;19.13;11.70;;;;;;;-0.83;56.29;96716.95;1795321;80;21033;-72
2022/03/28 05:09:26;;;;;;;24.10;12.87;;;;;;;-0.74;56.71;96721.25;1795376;80;21029;-78
2022/03/28 05:11:53;;;;;;;20.97;10.83;;;;;;;-0.70;56.34;96717.56;1795354;80;20998;-71
2022/03/28 05:14:22;;;;;;;11.90;4.87;;;;;;;-0.65;55.84;96720.36;1795399;80;20955;-72
2022/03/28 05:16:49;;;;;;;3.57;2.17;;;;;;;-0.62;55.95;96720.90;1795324;80;21531;-71
2022/03/28 05:19:16;;;;;;;8.83;3.60;;;;;;;-0.64;57.35;96719.52;1795055;80;21018;-72
2022/03/28 05:21:43;;;;;;;8.23;3.53;;;;;;;-0.61;56.94;96720.06;1795356;80;21009;-72
2022/03/28 05:24:10;;;;;;;6.07;1.80;;;;;;;-0.47;58.32;96717.66;1795302;80;21480;-73
2022/03/28 05:26:36;;;;;;;2.47;1.30;;;;;;;-0.37;57.92;96717.20;1795255;80;21045;-74
2022/03/28 05:29:03;;;;;;;3.07;1.50;;;;;;;-0.32;58.31;96713.09;1795527;80;21039;-72
2022/03/28 05:31:30;;;;;;;10.77;6.03;;;;;;;-0.22;58.54;96717.84;1795144;80;21496;-72
2022/03/28 05:33:56;;;;;;;16.00;8.53;;;;;;;-0.06;59.12;96713.27;1795442;80;20978;-70
2022/03/28 05:36:23;;;;;;;18.43;9.40;;;;;;;0.08;57.28;96717.31;1790676;80;21474;-74
2022/03/28 05:38:50;;;;;;;14.07;7.70;;;;;;;0.26;56.37;96711.95;1762432;81;20982;-72
2022/03/28 05:41:17;;;;;;;3.40;2.33;;;;;;;0.37;56.62;96705.88;1773106;79;21467;-72
2022/03/28 05:43:43;;;;;;;4.67;2.70;;;;;;;0.49;58.05;96714.55;1751489;82;21029;-74
2022/03/28 05:46:11;;;;;;;10.40;7.17;;;;;;;0.57;57.67;96698.42;1752533;79;21033;-70
2022/03/28 05:48:38;;;;;;;11.93;4.33;;;;;;;0.71;56.39;96695.48;1773392;81;20950;-70
2022/03/28 05:51:05;;;;;;;13.57;6.20;;;;;;;0.90;55.83;96694.42;1777023;81;20978;-70
2022/03/28 05:53:31;;;;;;;14.47;6.53;;;;;;;1.01;57.41;96698.31;1777248;80;21001;-69
2022/03/28 05:55:58;;;;;;;14.93;7.77;;;;;;;1.19;56.54;96687.25;1764231;81;21583;-72
2022/03/28 05:58:25;;;;;;;15.37;9.40;;;;;;;1.35;55.06;96683.46;1752066;81;20952;-73
2022/03/28 06:00:51;;;;;;;69.90;30.17;;;;;;;1.48;52.40;96688.66;1791455;78;20947;-74
2022/03/28 06:03:18;;;;;;;56.80;31.30;;;;;;;1.59;52.52;96682.52;1795505;80;20993;-76
2022/03/28 06:05:44;;;;;;;31.13;21.63;;;;;;;1.78;52.77;96685.33;1777778;80;21046;-72
2022/03/28 06:08:11;;;;;;;18.27;10.97;;;;;;;1.93;51.40;96686.70;1797231;80;21527;-72
2022/03/28 06:10:38;;;;;;;17.53;9.53;;;;;;;2.08;50.60;96680.22;1762247;81;21045;-73
2022/03/28 06:13:05;;;;;;;15.20;8.13;;;;;;;2.29;51.34;96680.91;1752073;80;21010;-73
2022/03/28 06:15:36;;;;;;;391.67;201.70;;;;;;;2.49;50.84;96671.06;1748846;81;21013;-73
2022/03/28 06:18:00;;;;;;;53.77;31.20;;;;;;;2.65;50.04;96669.81;1773845;81;21041;-76
2022/03/28 06:20:27;;;;;;;15.53;8.73;;;;;;;2.81;48.15;96666.80;1760548;81;21083;-75
2022/03/28 06:22:54;;;;;;;20.70;13.40;;;;;;;2.97;48.63;96672.44;1736068;81;21579;-73
2022/03/28 06:25:21;;;;;;;17.73;8.97;;;;;;;3.17;48.84;96666.47;1734811;81;21107;-72
2022/03/28 06:27:48;;;;;;;14.77;8.80;;;;;;;3.35;48.57;96663.47;1724151;82;21064;-77
2022/03/28 06:30:15;;;;;;;12.87;7.63;;;;;;;3.53;48.62;96666.98;1736705;82;21002;-74
2022/03/28 06:32:42;;;;;;;13.53;7.50;;;;;;;3.68;48.28;96665.67;1709530;82;20990;-72
2022/03/28 06:35:09;;;;;;;18.07;7.43;;;;;;;3.82;47.50;96660.77;1743751;82;21019;-71
2022/03/28 06:37:36;;;;;;;17.77;7.70;;;;;;;3.93;45.88;96661.45;1751170;82;21038;-72
2022/03/28 06:40:08;;;;;;;20.23;8.60;;;;;;;4.08;46.30;96657.51;1751722;82;21500;-73
2022/03/28 06:42:35;;;;;;;16.80;9.50;;;;;;;4.25;46.53;96653.95;1750769;82;21062;-71
2022/03/28 06:45:03;;;;;;;19.33;10.37;;;;;;;4.45;46.51;96657.02;1751170;82;21069;-70
2022/03/28 06:47:29;;;;;;;19.10;8.70;;;;;;;4.61;46.11;96647.80;1750736;82;21093;-72
2022/03/28 06:49:56;;;;;;;18.23;8.10;;;;;;;4.77;46.16;96636.80;1750688;82;21500;-70
2022/03/28 06:52:23;;;;;;;17.13;8.90;;;;;;;4.97;46.10;96640.25;1751800;82;21520;-70
2022/03/28 06:54:49;;;;;;;11.73;6.87;;;;;;;5.15;46.08;96640.60;1750408;82;21073;-73
2022/03/28 06:57:16;;;;;;;42.20;27.80;;;;;;;5.32;45.48;96634.83;1750481;82;21019;-69
2022/03/28 06:59:42;;;;;;;55.00;34.27;;;;;;;5.48;45.09;96636.84;1751214;82;21069;-71
2022/03/28 07:02:09;;;;;;;15.03;9.47;;;;;;;5.67;45.09;96640.69;1750997;82;21003;-72
2022/03/28 07:04:36;;;;;;;11.90;6.60;;;;;;;5.84;45.17;96640.52;1751188;82;21013;-73
2022/03/28 07:07:04;;;;;;;11.20;8.00;;;;;;;6.06;45.04;96635.23;1730124;81;21068;-72
2022/03/28 07:09:30;;;;;;;13.07;5.90;;;;;;;6.24;44.47;96632.01;1729375;82;21037;-73
2022/03/28 07:11:58;;;;;;;11.57;5.90;;;;;;;6.41;44.25;96624.84;1737655;82;21535;-72
2022/03/28 07:14:24;;;;;;;9.40;5.20;;;;;;;6.61;44.41;96622.48;1738000;82;21086;-73
2022/03/28 07:16:52;;;;;;;7.87;5.17;;;;;;;6.81;42.52;96618.81;1734749;81;20982;-73
2022/03/28 07:19:18;;;;;;;9.90;5.43;;;;;;;7.02;43.50;96616.87;1709454;82;21102;-73
2022/03/28 07:21:45;;;;;;;11.33;5.10;;;;;;;7.24;43.53;96614.94;1737717;82;21110;-74
2022/03/28 07:24:12;;;;;;;10.87;5.70;;;;;;;7.44;42.29;96611.20;1718093;82;21477;-73
2022/03/28 07:26:39;;;;;;;6.37;4.20;;;;;;;7.62;42.28;96608.31;1737624;82;21097;-73
2022/03/28 07:29:05;;;;;;;8.20;4.47;;;;;;;7.84;41.28;96604.09;1738327;82;21512;-76
2022/03/28 07:31:36;;;;;;;6.37;4.13;;;;;;;8.07;41.26;96597.29;1738590;82;21110;-74
2022/03/28 07:36:46;;;;;;;6.33;4.77;;;;;;;8.58;41.46;96587.98;1739181;82;20976;-74
2022/03/28 07:39:12;;;;;;;10.73;6.50;;;;;;;8.81;40.41;96589.41;1738742;82;21081;-74
2022/03/28 07:41:39;;;;;;;9.07;6.33;;;;;;;9.05;40.52;96581.18;1738997;82;21061;-71
2022/03/28 07:44:05;;;;;;;8.97;5.43;;;;;;;9.23;38.19;96580.34;1738758;82;21021;-78
2022/03/28 07:46:33;;;;;;;11.20;5.97;;;;;;;9.43;39.56;96582.58;1739003;82;21011;-72
2022/03/28 07:49:00;;;;;;;14.00;8.20;;;;;;;9.69;39.38;96575.14;1739392;82;21011;-76
2022/03/28 07:51:26;;;;;;;14.73;8.30;;;;;;;9.88;38.89;96573.41;1738923;82;20963;-76
2022/03/28 07:53:54;;;;;;;19.07;8.57;;;;;;;10.07;39.09;96573.81;1738401;82;21109;-73
2022/03/28 07:56:22;;;;;;;12.83;8.07;;;;;;;10.27;38.87;96570.27;1738395;82;21082;-78
2022/03/28 07:58:49;;;;;;;15.53;8.17;;;;;;;10.50;39.07;96565.84;1739285;82;21604;-70
2022/03/28 08:01:15;;;;;;;16.17;8.80;;;;;;;10.76;39.34;96565.78;1739308;82;21034;-73
2022/03/28 08:03:42;;;;;;;18.03;9.33;;;;;;;10.97;38.38;96560.84;1738461;82;21026;-74
2022/03/28 08:06:09;;;;;;;20.27;8.20;;;;;;;11.17;38.28;96555.91;1738829;82;21508;-72
2022/03/28 08:08:36;;;;;;;12.27;7.30;;;;;;;11.39;37.88;96547.39;1739074;82;21008;-71
2022/03/28 08:11:07;;;;;;;19.77;7.17;;;;;;;11.58;38.15;96546.84;1738179;82;21496;-73
2022/03/28 08:13:32;;;;;;;22.33;7.03;;;;;;;11.80;38.46;96540.95;1737445;82;21090;-73
2022/03/28 08:15:59;;;;;;;15.30;7.13;;;;;;;11.99;38.37;96540.36;1737422;82;21046;-72
2022/03/28 08:18:26;;;;;;;14.93;7.60;;;;;;;12.16;38.23;96537.12;1747137;80;21126;-73
2022/03/28 08:20:54;;;;;;;15.10;7.10;;;;;;;12.37;38.51;96541.30;1789854;80;21035;-73
2022/03/28 08:23:20;;;;;;;14.47;7.17;;;;;;;12.52;38.15;96537.62;1759331;81;21058;-76
2022/03/28 08:25:50;;;;;;;13.43;7.40;;;;;;;12.64;37.98;96530.86;1793636;80;21657;-70
2022/03/28 08:28:17;;;;;;;15.07;8.33;;;;;;;12.81;38.20;96535.10;1793560;80;21093;-67
2022/03/28 08:30:44;;;;;;;15.03;8.73;;;;;;;12.95;37.87;96531.38;1791008;80;21041;-67
2022/03/28 08:33:11;;;;;;;13.57;8.00;;;;;;;13.04;37.35;96530.83;1794228;80;21045;-76
2022/03/28 08:35:38;;;;;;;15.43;7.50;;;;;;;13.15;37.89;96523.59;1793135;80;21042;-74
2022/03/28 08:38:05;;;;;;;17.03;9.10;;;;;;;13.29;37.79;96516.38;1793592;80;21063;-75
2022/03/28 08:40:32;;;;;;;11.77;7.97;;;;;;;13.41;37.57;96516.20;1794564;80;21462;-72
2022/03/28 08:42:59;;;;;;;14.33;8.57;;;;;;;13.51;36.79;96512.96;1794496;80;21071;-70
2022/03/28 08:45:26;;;;;;;15.17;8.47;;;;;;;13.55;36.26;96512.45;1794553;80;21506;-71
2022/03/28 08:47:56;;;;;;;16.93;8.80;;;;;;;13.70;36.99;96500.72;1793949;80;21009;-72
2022/03/28 08:50:23;;;;;;;10.60;7.57;;;;;;;13.85;36.55;96504.45;1794168;80;21148;-71
2022/03/28 08:52:49;;;;;;;10.30;6.87;;;;;;;13.88;36.01;96502.19;1795028;80;21041;-75
2022/03/28 08:55:17;;;;;;;11.10;7.60;;;;;;;14.03;37.03;96497.94;1794200;80;21017;-72
2022/03/28 08:57:44;;;;;;;11.47;8.57;;;;;;;14.21;37.85;96500.29;1794811;80;21077;-74
2022/03/28 09:00:12;;;;;;;14.03;7.65;;;;;;;14.20;35.33;96491.02;1794287;80;21064;-73
2022/03/28 09:02:45;;;;;;;10.57;7.20;;;;;;;14.29;36.09;96491.72;1793898;80;21037;-72
2022/03/28 09:05:18;;;;;;;12.23;7.05;;;;;;;14.52;36.34;96489.53;1793987;80;21044;-72
2022/03/28 09:07:46;;;;;;;10.50;7.20;;;;;;;14.74;35.46;96486.91;1794526;80;21016;-72
2022/03/28 09:10:16;;;;;;;13.03;8.00;;;;;;;14.79;35.31;96480.14;1793999;80;21461;-72
2022/03/28 09:13:11;;;;;;;13.08;8.45;;;;;;;14.96;34.48;96481.98;1794542;80;21565;-72
2022/03/28 09:16:01;;;;;;;12.05;7.55;;;;;;;15.11;33.88;96480.32;1794935;80;21024;-72
2022/03/28 09:18:34;;;;;;;14.15;9.28;;;;;;;15.14;34.28;96469.64;1795119;80;21000;-72
2022/03/28 09:21:04;;;;;;;17.65;8.73;;;;;;;15.33;34.11;96466.55;1789566;80;21546;-72
2022/03/28 09:23:44;;;;;;;13.80;7.90;;;;;;;15.45;32.99;96464.07;1755126;80;21036;-70
2022/03/28 09:26:20;;;;;;;12.30;7.25;;;;;;;15.56;33.04;96466.88;1787186;80;21448;-69
2022/03/28 09:28:58;;;;;;;10.45;7.25;;;;;;;15.65;33.16;96465.79;1787244;80;21369;-69
2022/03/28 09:31:37;;;;;;;8.40;6.65;;;;;;;15.81;32.27;96465.44;1787106;80;20970;-70
2022/03/28 09:34:15;;;;;;;10.88;7.22;;;;;;;15.96;33.35;96461.05;1787128;80;20993;-70
2022/03/28 09:36:50;;;;;;;10.45;7.20;;;;;;;16.12;32.03;96456.19;1787051;80;21041;-71
2022/03/28 09:39:35;;;;;;;13.68;7.47;;;;;;;16.22;32.13;96459.89;1787255;80;21475;-70
2022/03/28 09:42:10;;;;;;;11.40;7.10;;;;;;;16.25;31.20;96453.60;1785800;80;21021;-70
2022/03/28 09:44:48;;;;;;;12.03;6.92;;;;;;;16.30;31.71;96455.69;1787124;80;20990;-70
2022/03/28 09:47:19;;;;;;;12.95;7.67;;;;;;;16.53;31.99;96445.75;1787203;80;21010;-70
2022/03/28 09:49:49;;;;;;;15.90;8.05;;;;;;;16.54;30.95;96445.28;1786277;80;21056;-70
2022/03/28 09:52:20;;;;;;;15.95;9.20;;;;;;;16.36;30.80;96449.34;1786046;80;22191;-70
2022/03/28 09:55:00;;;;;;;14.38;8.45;;;;;;;16.24;31.15;96447.88;1786106;80;21116;-70
2022/03/28 09:57:37;;;;;;;14.00;8.95;;;;;;;16.11;32.32;96443.34;1785366;80;21033;-70
2022/03/28 10:00:14;;;;;;;14.20;8.53;;;;;;;16.28;31.37;96441.56;1786593;80;21012;-70
2022/03/28 10:02:42;;;;;;;31.17;20.10;;;;;;;16.26;32.10;96435.86;1786602;80;20990;-70
2022/03/28 10:05:10;;;;;;;26.82;16.00;;;;;;;16.40;32.75;96426.58;1786905;80;21522;-70
2022/03/28 10:07:37;;;;;;;28.30;17.20;;;;;;;16.59;31.95;96424.70;1787297;80;21002;-70
2022/03/28 10:10:06;;;;;;;21.90;12.40;;;;;;;16.68;31.76;96412.89;1787192;80;20989;-70
2022/03/28 10:12:34;;;;;;;26.75;14.65;;;;;;;16.79;31.59;96410.83;1787214;80;20997;-70
2022/03/28 10:15:01;;;;;;;13.13;8.48;;;;;;;16.79;31.50;96401.50;1787306;80;20985;-70
2022/03/28 10:17:30;;;;;;;22.67;11.35;;;;;;;16.69;30.79;96406.20;1787096;80;21097;-71
2022/03/28 10:19:58;;;;;;;12.55;8.10;;;;;;;16.78;31.67;96402.41;1788421;80;21032;-70
2022/03/28 10:22:32;;;;;;;11.20;7.50;;;;;;;16.60;30.44;96398.00;1801229;80;21040;-70
2022/03/28 10:25:08;;;;;;;38.02;22.00;;;;;;;16.64;31.77;96392.14;1801311;80;20977;-70
2022/03/28 10:27:37;;;;;;;29.07;15.32;;;;;;;16.75;31.89;96389.15;1801115;80;21043;-70
2022/03/28 10:30:22;;;;;;;17.45;11.43;;;;;;;16.97;31.35;96375.61;1801151;80;21467;-70
2022/03/28 10:33:16;;;;;;;13.38;8.73;;;;;;;17.06;30.53;96382.47;1800805;80;21051;-70
2022/03/28 10:36:06;;;;;;;27.02;14.95;;;;;;;17.25;30.59;96380.06;1801158;80;20981;-70
2022/03/28 10:38:33;;;;;;;26.42;15.10;;;;;;;17.42;29.89;96378.19;1799818;80;21014;-70
2022/03/28 10:41:08;;;;;;;17.37;9.75;;;;;;;17.54;30.25;96369.78;1801190;80;21490;-70
2022/03/28 10:43:35;;;;;;;17.00;11.10;;;;;;;17.58;30.32;96356.73;1801120;80;20993;-73
2022/03/28 10:46:10;;;;;;;17.07;11.45;;;;;;;17.46;28.07;96367.38;1801101;80;21000;-73
2022/03/28 10:48:40;;;;;;;26.37;15.32;;;;;;;17.32;27.89;96363.41;1799504;80;21016;-73
2022/03/28 10:51:11;;;;;;;13.45;9.20;;;;;;;17.24;28.50;96359.20;1796378;80;20989;-73
2022/03/28 10:53:46;;;;;;;11.63;7.17;;;;;;;17.27;28.43;96348.42;1796315;80;21005;-73
2022/03/28 10:56:20;;;;;;;25.00;13.15;;;;;;;17.41;27.78;96345.75;1795175;80;20962;-73
2022/03/28 10:59:11;;;;;;;19.90;12.35;;;;;;;17.44;29.25;96339.00;1796510;79;21040;-73
2022/03/28 11:01:44;;;;;;;12.53;7.92;;;;;;;17.55;28.36;96342.63;1796265;80;20954;-70
2022/03/28 11:04:23;;;;;;;18.32;11.12;;;;;;;17.40;28.16;96340.88;1796306;80;20989;-70
2022/03/28 11:07:00;;;;;;;25.25;15.78;;;;;;;17.46;28.55;96338.45;1796428;80;21481;-70
2022/03/28 11:09:53;;;;;;;23.47;11.35;;;;;;;17.69;28.10;96327.02;1796297;80;21036;-70
2022/03/28 11:12:40;;;;;;;18.90;10.00;;;;;;;18.16;28.49;96317.78;1796678;80;21009;-70
2022/03/28 11:15:24;;;;;;;20.62;10.32;;;;;;;18.47;27.10;96310.84;1796231;80;21052;-70
2022/03/28 11:18:01;;;;;;;19.25;9.50;;;;;;;18.80;26.86;96318.52;1796327;79;20985;-71
2022/03/28 11:20:32;;;;;;;11.70;7.35;;;;;;;19.18;26.32;96304.92;1796108;79;21068;-70
2022/03/28 11:23:10;;;;;;;8.80;5.85;;;;;;;19.89;25.05;96293.91;1794007;80;21054;-71
2022/03/28 11:25:53;;;;;;;12.88;7.78;;;;;;;20.12;24.77;96288.86;1796285;80;21017;-72
2022/03/28 11:28:27;;;;;;;15.63;9.70;;;;;;;20.40;23.91;96281.76;1796667;80;20970;-72
2022/03/28 11:31:06;;;;;;;61.37;29.63;;;;;;;20.72;23.56;96284.30;1796213;80;21048;-73
2022/03/28 11:33:46;;;;;;;34.35;18.60;;;;;;;21.05;23.16;96269.34;1796162;79;21001;-72
2022/03/28 11:36:18;;;;;;;33.65;19.80;;;;;;;21.18;23.62;96278.03;1796236;80;20974;-73
2022/03/28 11:38:50;;;;;;;21.77;14.50;;;;;;;21.32;23.84;96269.30;1796519;80;20989;-73
2022/03/28 11:41:19;;;;;;;19.50;10.27;;;;;;;21.78;23.60;96256.22;1796086;80;21510;-73
2022/03/28 11:43:53;;;;;;;21.23;12.70;;;;;;;22.22;21.98;96248.96;1796204;80;20942;-73